Time;durP1;ratioP1;P1;durP2;ratioP2;P2;SDS_P1;SDS_P2;PMS_P1;PMS_P2;Temp;Humidity;BMP_temperature;BMP_pressure;BME280_temperature;BME280_humidity;BME280_pressure;Samples;Min_cycle;Max_cycle;Signal;HPM_P1;HPM_P2
2021/03/05 00:00:56;;;;;;;8.65;5.47;;;9.70;99.90;;;;;;5096590;28;20266;-72
2021/03/05 00:03:23;;;;;;;12.75;7.25;;;9.70;99.90;;;;;;5096689;28;20625;-72
2021/03/05 00:05:49;;;;;;;13.43;7.57;;;9.60;99.90;;;;;;5096562;28;20208;-74
2021/03/05 00:08:16;;;;;;;13.05;7.25;;;9.20;99.90;;;;;;5096391;28;20296;-73
2021/03/05 00:10:45;;;;;;;12.35;7.43;;;8.90;99.90;;;;;;5096408;28;20229;-76
2021/03/05 00:13:12;;;;;;;14.27;8.40;;;8.80;99.90;;;;;;5097519;28;20323;-77
2021/03/05 00:15:41;;;;;;;16.13;9.23;;;8.60;99.90;;;;;;5096585;28;20747;-76
2021/03/05 00:18:08;;;;;;;14.55;7.45;;;8.60;99.90;;;;;;5097112;28;20218;-76
2021/03/05 00:20:38;;;;;;;14.13;7.38;;;8.50;99.90;;;;;;5096267;28;20248;-72
2021/03/05 00:23:04;;;;;;;16.23;9.43;;;8.50;99.90;;;;;;5095931;28;20202;-72
2021/03/05 00:25:31;;;;;;;14.90;8.10;;;8.50;99.90;;;;;;5095806;28;20289;-76
2021/03/05 00:27:58;;;;;;;11.30;6.50;;;8.50;99.90;;;;;;5095699;28;20602;-77
2021/03/05 00:30:25;;;;;;;10.10;5.90;;;8.40;99.90;;;;;;5096205;28;20303;-76
2021/03/05 00:32:51;;;;;;;14.27;7.40;;;8.30;99.90;;;;;;5095843;28;20256;-77
2021/03/05 00:35:19;;;;;;;14.32;6.93;;;8.30;99.90;;;;;;5095767;28;20210;-76
2021/03/05 00:37:46;;;;;;;19.73;8.90;;;8.30;99.90;;;;;;5095620;28;20216;-76
2021/03/05 00:40:15;;;;;;;17.17;8.90;;;8.00;99.90;;;;;;5095660;28;20791;-76
2021/03/05 00:42:44;;;;;;;17.63;9.60;;;8.10;99.90;;;;;;5095919;28;20259;-76
2021/03/05 00:45:12;;;;;;;15.13;7.60;;;7.80;99.90;;;;;;5095359;28;20263;-78
2021/03/05 00:47:38;;;;;;;16.98;9.73;;;7.80;99.90;;;;;;5095397;28;20211;-73
2021/03/05 00:50:06;;;;;;;19.88;10.07;;;7.80;99.90;;;;;;5095699;28;20226;-73
2021/03/05 00:52:33;;;;;;;19.17;10.55;;;7.60;99.90;;;;;;5095116;28;20679;-73
2021/03/05 00:54:59;;;;;;;19.70;10.32;;;7.60;99.90;;;;;;5095240;28;20212;-73
2021/03/05 00:57:25;;;;;;;24.58;9.85;;;7.50;99.90;;;;;;5095492;28;20736;-72
2021/03/05 00:59:53;;;;;;;21.30;11.65;;;7.30;99.90;;;;;;5095241;28;20226;-72
2021/03/05 01:02:19;;;;;;;20.55;10.95;;;7.20;99.90;;;;;;5095231;28;20729;-72
2021/03/05 01:04:45;;;;;;;22.35;10.90;;;7.00;99.90;;;;;;5095145;28;20263;-72
2021/03/05 01:07:12;;;;;;;25.13;11.80;;;7.00;99.90;;;;;;5094811;28;20202;-72
2021/03/05 01:09:39;;;;;;;16.95;9.75;;;7.00;99.90;;;;;;5095035;28;20672;-71
2021/03/05 01:12:06;;;;;;;22.73;12.80;;;6.90;99.90;;;;;;5094968;28;20711;-72
2021/03/05 01:14:33;;;;;;;20.92;10.80;;;6.70;99.90;;;;;;5094665;28;20223;-71
2021/03/05 01:17:00;;;;;;;23.67;12.05;;;6.70;99.90;;;;;;5094896;28;20206;-71
2021/03/05 01:19:28;;;;;;;21.00;9.93;;;6.80;99.90;;;;;;5095052;28;20228;-72
2021/03/05 01:21:55;;;;;;;22.63;11.15;;;6.80;99.90;;;;;;5094777;28;20606;-71
2021/03/05 01:24:22;;;;;;;15.85;8.23;;;6.80;99.90;;;;;;5094613;28;20212;-71
2021/03/05 01:26:48;;;;;;;24.70;11.15;;;6.70;99.90;;;;;;5094764;28;20205;-71
2021/03/05 01:29:14;;;;;;;22.15;10.77;;;6.60;99.90;;;;;;5094842;28;20724;-71
2021/03/05 01:31:41;;;;;;;21.65;10.27;;;6.40;99.90;;;;;;5094463;28;20260;-71
2021/03/05 01:34:08;;;;;;;27.50;11.57;;;6.30;99.90;;;;;;5094414;28;20212;-72
2021/03/05 01:36:35;;;;;;;23.42;10.73;;;6.20;99.90;;;;;;5094198;28;20213;-72
2021/03/05 01:39:01;;;;;;;21.10;10.25;;;6.10;99.90;;;;;;5094895;28;20226;-71
2021/03/05 01:41:28;;;;;;;18.15;9.30;;;6.10;99.90;;;;;;5096336;28;20225;-71
2021/03/05 01:43:54;;;;;;;24.35;10.15;;;6.10;99.90;;;;;;5096508;28;20214;-72
2021/03/05 01:46:21;;;;;;;22.58;11.98;;;6.10;99.90;;;;;;5096109;28;20293;-69
2021/03/05 01:48:48;;;;;;;24.15;13.02;;;6.20;99.90;;;;;;5095774;28;20335;-70
2021/03/05 01:51:17;;;;;;;22.90;12.27;;;6.10;99.90;;;;;;5096115;28;20219;-70
2021/03/05 01:53:45;;;;;;;18.27;10.23;;;6.00;99.90;;;;;;5096027;28;20309;-70
2021/03/05 01:56:31;;;;;;;24.45;11.23;;;6.00;99.90;;;;;;5095639;28;20521;-69
2021/03/05 01:58:58;;;;;;;20.77;10.57;;;6.10;99.90;;;;;;5095916;28;20218;-69
2021/03/05 02:01:25;;;;;;;22.13;11.45;;;6.10;99.90;;;;;;5095557;28;20370;-69
2021/03/05 02:03:52;;;;;;;15.27;8.15;;;6.00;99.90;;;;;;5095688;28;20202;-69
2021/03/05 02:06:19;;;;;;;23.38;12.32;;;5.80;99.90;;;;;;5095582;28;20198;-69
2021/03/05 02:08:46;;;;;;;24.42;9.77;;;5.70;99.90;;;;;;5095685;28;20202;-69
2021/03/05 02:11:12;;;;;;;21.52;10.20;;;5.70;99.90;;;;;;5095601;28;20230;-68
2021/03/05 02:13:38;;;;;;;29.63;12.50;;;5.70;99.90;;;;;;5095721;28;20204;-69
2021/03/05 02:16:14;;;;;;;23.85;12.10;;;5.60;99.90;;;;;;5095501;28;20208;-68
2021/03/05 02:18:47;;;;;;;22.90;10.65;;;5.60;99.90;;;;;;5094913;28;20303;-68
2021/03/05 02:21:32;;;;;;;22.50;11.68;;;5.70;99.90;;;;;;5094356;28;20722;-69
2021/03/05 02:24:16;;;;;;;23.15;10.73;;;5.70;99.90;;;;;;5095483;28;20210;-69
2021/03/05 02:27:12;;;;;;;28.77;12.25;;;5.50;99.90;;;;;;5094931;28;20244;-69
2021/03/05 02:30:22;;;;;;;24.20;10.98;;;5.50;99.90;;;;;;5095073;28;20258;-69
2021/03/05 02:32:54;;;;;;;23.63;10.35;;;5.60;99.90;;;;;;5095867;28;20255;-68
2021/03/05 02:35:22;;;;;;;28.20;12.05;;;5.60;99.90;;;;;;5094578;28;20637;-69
2021/03/05 02:37:50;;;;;;;25.02;11.68;;;5.70;99.90;;;;;;5094606;28;20292;-69
2021/03/05 02:40:22;;;;;;;26.92;11.82;;;5.60;99.90;;;;;;5094686;28;20232;-69
2021/03/05 02:42:55;;;;;;;32.03;11.15;;;5.70;99.90;;;;;;5094473;28;20655;-69
2021/03/05 02:45:25;;;;;;;25.30;10.80;;;5.80;99.90;;;;;;5094459;28;20214;-69
2021/03/05 02:47:55;;;;;;;22.80;10.27;;;5.90;99.90;;;;;;5094657;28;20229;-69
2021/03/05 02:50:25;;;;;;;24.83;11.88;;;5.80;99.90;;;;;;5094903;28;20681;-69
2021/03/05 02:52:54;;;;;;;21.45;10.40;;;5.70;99.90;;;;;;5094772;28;20209;-69
2021/03/05 02:55:22;;;;;;;24.65;11.45;;;5.70;99.90;;;;;;5094750;28;20601;-69
2021/03/05 02:57:54;;;;;;;17.95;8.57;;;5.60;99.90;;;;;;5094192;28;20206;-69
2021/03/05 03:00:22;;;;;;;20.85;10.70;;;5.60;99.90;;;;;;5094416;28;20644;-69
2021/03/05 03:02:52;;;;;;;16.17;8.10;;;5.60;99.90;;;;;;5094699;28;20206;-69
2021/03/05 03:05:19;;;;;;;20.45;8.52;;;5.80;99.90;;;;;;5094766;28;20289;-69
2021/03/05 03:07:47;;;;;;;21.58;8.80;;;5.70;99.90;;;;;;5094217;28;20267;-69
2021/03/05 03:10:14;;;;;;;20.38;8.95;;;5.70;99.90;;;;;;5093920;28;20222;-69
2021/03/05 03:12:41;;;;;;;21.52;9.48;;;5.80;99.90;;;;;;5094291;28;20683;-69
2021/03/05 03:15:09;;;;;;;23.10;10.25;;;5.90;99.90;;;;;;5094252;28;20293;-69
2021/03/05 03:17:39;;;;;;;18.23;9.45;;;6.00;99.90;;;;;;5093992;28;20557;-69
2021/03/05 03:20:06;;;;;;;20.70;10.85;;;5.90;99.90;;;;;;5093972;28;20225;-69
2021/03/05 03:22:33;;;;;;;20.92;10.60;;;5.60;99.90;;;;;;5094738;28;20206;-69
2021/03/05 03:25:01;;;;;;;19.38;9.43;;;5.50;99.90;;;;;;5094053;28;20248;-69
2021/03/05 03:27:28;;;;;;;29.70;10.50;;;5.50;99.90;;;;;;5093788;28;20202;-69
2021/03/05 03:29:54;;;;;;;20.63;10.98;;;5.60;99.90;;;;;;5094052;28;20285;-69
2021/03/05 03:32:21;;;;;;;26.58;9.70;;;5.40;99.90;;;;;;5094474;28;20292;-69
2021/03/05 03:34:49;;;;;;;16.80;9.20;;;5.40;99.90;;;;;;5094299;28;20206;-69
2021/03/05 03:37:18;;;;;;;15.75;8.85;;;5.60;99.90;;;;;;5094279;28;20206;-69
2021/03/05 03:39:45;;;;;;;21.20;9.85;;;5.70;99.90;;;;;;5093910;28;20313;-69
2021/03/05 03:42:12;;;;;;;18.52;9.57;;;5.90;99.90;;;;;;5093573;28;20206;-69
2021/03/05 03:44:38;;;;;;;23.30;9.60;;;5.90;99.90;;;;;;5093727;28;20216;-69
2021/03/05 03:47:05;;;;;;;16.88;8.73;;;6.00;99.90;;;;;;5093790;28;20288;-69
2021/03/05 03:49:36;;;;;;;20.05;10.18;;;6.00;99.90;;;;;;5094181;28;20204;-69
2021/03/05 03:52:06;;;;;;;22.38;10.18;;;6.00;99.90;;;;;;5094332;28;20222;-69
2021/03/05 03:54:34;;;;;;;16.48;8.32;;;5.90;99.90;;;;;;5093847;28;20265;-69
2021/03/05 03:57:04;;;;;;;18.80;7.65;;;5.80;99.90;;;;;;5093409;28;20335;-69
2021/03/05 03:59:33;;;;;;;15.18;7.80;;;5.80;99.90;;;;;;5093727;28;20226;-69
2021/03/05 04:02:01;;;;;;;17.90;8.60;;;5.70;99.90;;;;;;5094317;28;20221;-69
2021/03/05 04:04:33;;;;;;;15.55;7.95;;;5.60;99.90;;;;;;5093409;28;20252;-69
2021/03/05 04:07:01;;;;;;;16.73;8.63;;;5.70;99.90;;;;;;5093718;28;20622;-69
2021/03/05 04:09:29;;;;;;;15.88;8.68;;;5.80;99.90;;;;;;5093999;28;20198;-69
2021/03/05 04:11:57;;;;;;;14.90;8.65;;;5.90;99.90;;;;;;5094130;28;20253;-69
2021/03/05 04:14:25;;;;;;;16.13;9.25;;;5.80;99.90;;;;;;5093902;28;20241;-68
2021/03/05 04:16:52;;;;;;;18.10;8.75;;;5.60;99.90;;;;;;5093482;28;20202;-69
2021/03/05 04:19:20;;;;;;;16.45;8.95;;;5.60;99.90;;;;;;5093288;28;20335;-69
2021/03/05 04:21:47;;;;;;;19.77;9.38;;;5.70;99.90;;;;;;5093627;28;20225;-69
2021/03/05 04:24:15;;;;;;;17.30;8.80;;;5.70;99.90;;;;;;5092433;28;20559;-69
2021/03/05 04:26:41;;;;;;;14.88;7.95;;;5.50;99.90;;;;;;5093424;28;20202;-68
2021/03/05 04:29:07;;;;;;;14.73;7.45;;;5.60;99.90;;;;;;5093808;28;20562;-69
2021/03/05 04:31:35;;;;;;;15.90;8.13;;;5.70;99.90;;;;;;5093378;28;20650;-69
2021/03/05 04:34:01;;;;;;;14.23;8.30;;;5.80;99.90;;;;;;5093194;28;20208;-69
2021/03/05 04:36:27;;;;;;;13.25;6.95;;;5.80;99.90;;;;;;5093101;28;20549;-69
2021/03/05 04:38:54;;;;;;;15.93;7.75;;;5.70;99.90;;;;;;5092991;28;20684;-69
2021/03/05 04:41:20;;;;;;;15.38;7.93;;;5.70;99.90;;;;;;5093218;28;20218;-69
2021/03/05 04:43:46;;;;;;;19.45;8.55;;;5.80;99.90;;;;;;5095758;28;20743;-69
2021/03/05 04:46:12;;;;;;;14.55;7.10;;;5.70;99.90;;;;;;5096976;28;20235;-69
2021/03/05 04:48:40;;;;;;;15.98;7.53;;;5.70;99.90;;;;;;5096944;28;20597;-69
2021/03/05 04:51:06;;;;;;;16.75;7.93;;;5.70;99.90;;;;;;5097145;28;20261;-69
2021/03/05 04:53:32;;;;;;;14.98;6.95;;;5.60;99.90;;;;;;5097273;28;20290;-69
2021/03/05 04:55:58;;;;;;;10.45;5.80;;;5.60;99.90;;;;;;5096494;28;20255;-70
2021/03/05 04:58:25;;;;;;;13.35;6.40;;;5.50;99.90;;;;;;5097225;28;20314;-69
2021/03/05 05:00:51;;;;;;;16.40;7.50;;;5.50;99.90;;;;;;5096546;28;20310;-69
2021/03/05 05:03:17;;;;;;;8.52;5.70;;;5.50;99.90;;;;;;5096757;28;20635;-69
2021/03/05 05:05:44;;;;;;;12.05;5.60;;;5.50;99.90;;;;;;5096813;28;20197;-69
2021/03/05 05:08:11;;;;;;;12.57;6.25;;;5.40;99.90;;;;;;5097015;28;20309;-68
2021/03/05 05:10:37;;;;;;;12.40;5.95;;;5.50;99.90;;;;;;5096819;28;20236;-69
2021/03/05 05:13:04;;;;;;;12.18;7.18;;;5.50;99.90;;;;;;5097837;28;20254;-68
2021/03/05 05:15:30;;;;;;;10.40;5.57;;;5.50;99.90;;;;;;5096905;28;20202;-69
2021/03/05 05:17:57;;;;;;;10.52;5.70;;;5.50;99.90;;;;;;5096403;28;20212;-68
2021/03/05 05:20:23;;;;;;;10.63;5.25;;;5.50;99.90;;;;;;5097518;28;20240;-69
2021/03/05 05:22:50;;;;;;;14.57;6.13;;;5.50;99.90;;;;;;5097222;28;20206;-69
2021/03/05 05:25:17;;;;;;;13.55;6.70;;;5.40;99.90;;;;;;5096403;28;20282;-69
2021/03/05 05:27:43;;;;;;;13.48;7.00;;;5.20;99.90;;;;;;5096228;28;20285;-69
2021/03/05 05:30:11;;;;;;;13.60;6.50;;;5.10;99.90;;;;;;5096106;28;20672;-69
2021/03/05 05:32:37;;;;;;;13.90;5.80;;;5.30;99.90;;;;;;5096205;28;20648;-69
2021/03/05 05:35:04;;;;;;;12.95;7.10;;;5.30;99.90;;;;;;5096408;28;20288;-69
2021/03/05 05:37:31;;;;;;;11.98;7.30;;;5.30;99.90;;;;;;5096027;28;20675;-68
2021/03/05 05:39:58;;;;;;;10.32;6.25;;;5.30;99.90;;;;;;5095951;28;20309;-69
2021/03/05 05:42:24;;;;;;;11.35;5.43;;;5.30;99.90;;;;;;5096548;28;20712;-69
2021/03/05 05:44:51;;;;;;;12.73;6.25;;;5.10;99.90;;;;;;5095976;28;20206;-69
2021/03/05 05:47:17;;;;;;;11.10;6.20;;;5.10;99.90;;;;;;5095804;28;20297;-69
2021/03/05 05:49:44;;;;;;;15.52;6.55;;;5.00;99.90;;;;;;5095948;28;20194;-69
2021/03/05 05:52:14;;;;;;;14.45;5.90;;;5.00;99.90;;;;;;5096077;28;20308;-68
2021/03/05 05:54:41;;;;;;;13.10;6.78;;;4.80;99.90;;;;;;5095864;28;20202;-69
2021/03/05 05:57:10;;;;;;;14.82;6.85;;;4.80;99.90;;;;;;5095384;28;20251;-69
2021/03/05 05:59:37;;;;;;;13.43;6.97;;;4.70;99.90;;;;;;5095872;28;20230;-68
2021/03/05 06:02:05;;;;;;;17.25;6.88;;;4.80;99.90;;;;;;5095560;28;20312;-69
2021/03/05 06:04:32;;;;;;;15.50;6.35;;;4.70;99.90;;;;;;5095694;28;20628;-69
2021/03/05 06:06:58;;;;;;;12.43;6.25;;;4.80;99.90;;;;;;5095749;28;20205;-69
2021/03/05 06:09:25;;;;;;;11.00;5.55;;;4.80;99.90;;;;;;5096534;28;20541;-69
2021/03/05 06:11:51;;;;;;;14.63;7.47;;;4.90;99.90;;;;;;5095537;28;20309;-69
2021/03/05 06:14:20;;;;;;;13.45;6.70;;;5.00;99.90;;;;;;5095390;28;20248;-69
2021/03/05 06:16:57;;;;;;;10.80;5.20;;;5.00;99.90;;;;;;5095118;28;20208;-69
2021/03/05 06:19:24;;;;;;;13.20;6.25;;;4.90;99.90;;;;;;5095543;28;20221;-69
2021/03/05 06:21:51;;;;;;;12.50;6.50;;;4.80;99.90;;;;;;5095238;28;20226;-69
2021/03/05 06:24:18;;;;;;;11.70;6.25;;;4.90;99.90;;;;;;5095308;28;20293;-69
2021/03/05 06:26:53;;;;;;;12.50;5.78;;;4.80;99.90;;;;;;5094997;28;20206;-69
2021/03/05 06:29:21;;;;;;;10.02;5.43;;;4.70;99.90;;;;;;5095461;28;20197;-69
2021/03/05 06:31:54;;;;;;;9.38;5.63;;;4.70;99.90;;;;;;5095170;28;20308;-69
2021/03/05 06:34:21;;;;;;;10.38;6.03;;;4.70;99.90;;;;;;5095636;28;20290;-69
2021/03/05 06:36:57;;;;;;;10.60;5.65;;;4.80;99.90;;;;;;5095111;28;20563;-69
2021/03/05 06:39:25;;;;;;;12.07;5.53;;;4.80;99.90;;;;;;5095430;28;20308;-69
2021/03/05 06:42:01;;;;;;;10.57;5.53;;;4.80;99.90;;;;;;5095498;28;20226;-69
2021/03/05 06:44:29;;;;;;;16.38;5.97;;;4.90;99.90;;;;;;5095651;28;20297;-70
2021/03/05 06:46:56;;;;;;;11.77;5.82;;;4.90;99.90;;;;;;5094783;28;20395;-69
2021/03/05 06:49:22;;;;;;;12.18;5.07;;;5.00;99.90;;;;;;5094917;28;20250;-69
2021/03/05 06:51:53;;;;;;;10.70;5.50;;;5.00;99.90;;;;;;5094849;28;20634;-69
2021/03/05 06:54:20;;;;;;;10.57;5.97;;;4.80;99.90;;;;;;5094652;28;20289;-69
2021/03/05 06:56:48;;;;;;;12.63;6.13;;;4.70;99.90;;;;;;5094222;28;20229;-69
2021/03/05 06:59:16;;;;;;;11.90;4.78;;;4.60;99.90;;;;;;5094135;28;20261;-69
2021/03/05 07:01:51;;;;;;;11.80;6.38;;;4.50;99.90;;;;;;5094317;28;20222;-69
2021/03/05 07:04:20;;;;;;;11.40;5.57;;;4.50;99.90;;;;;;5094470;28;20205;-69
2021/03/05 07:06:47;;;;;;;9.82;5.97;;;4.70;99.90;;;;;;5093810;28;20293;-69
2021/03/05 07:09:24;;;;;;;12.63;5.25;;;4.80;99.90;;;;;;5094733;28;20198;-69
2021/03/05 07:11:51;;;;;;;10.80;6.28;;;4.90;99.90;;;;;;5094214;28;20625;-69
2021/03/05 07:14:18;;;;;;;12.18;5.32;;;4.80;99.90;;;;;;5094630;28;20236;-69
2021/03/05 07:16:50;;;;;;;11.93;4.70;;;4.80;99.90;;;;;;5094383;28;20213;-69
2021/03/05 07:19:18;;;;;;;15.40;5.70;;;4.80;99.90;;;;;;5094559;28;20226;-69
2021/03/05 07:21:46;;;;;;;10.43;6.40;;;4.80;99.90;;;;;;5094363;28;20237;-69
2021/03/05 07:24:15;;;;;;;10.48;5.57;;;4.80;99.90;;;;;;5094875;28;20198;-69
2021/03/05 07:26:57;;;;;;;10.40;5.63;;;4.90;99.90;;;;;;5094055;28;20297;-69
2021/03/05 07:29:25;;;;;;;12.20;6.10;;;5.00;99.90;;;;;;5094518;28;20198;-69
2021/03/05 07:32:08;;;;;;;15.90;6.68;;;4.90;99.90;;;;;;5094402;28;20226;-69
2021/03/05 07:34:47;;;;;;;10.73;6.18;;;4.80;99.90;;;;;;5095615;28;20236;-69
2021/03/05 07:37:14;;;;;;;17.65;7.18;;;4.70;99.90;;;;;;5094143;28;20201;-69
2021/03/05 07:39:43;;;;;;;11.82;6.38;;;4.80;99.90;;;;;;5093993;28;20317;-69
2021/03/05 07:42:10;;;;;;;14.77;6.60;;;4.90;99.90;;;;;;5094343;28;20218;-69
2021/03/05 07:44:37;;;;;;;15.77;6.90;;;4.80;99.90;;;;;;5094162;28;20305;-69
2021/03/05 07:47:09;;;;;;;13.32;7.07;;;4.80;99.90;;;;;;5094114;28;20202;-69
2021/03/05 07:49:36;;;;;;;11.77;5.22;;;4.90;99.90;;;;;;5094663;28;20198;-69
2021/03/05 07:52:03;;;;;;;11.73;6.22;;;4.80;99.90;;;;;;5094504;28;20320;-70
2021/03/05 07:54:49;;;;;;;15.48;6.35;;;4.90;99.90;;;;;;5094072;28;20205;-71
2021/03/05 07:57:48;;;;;;;11.13;6.15;;;5.20;99.90;;;;;;5093958;28;20263;-70
2021/03/05 08:00:39;;;;;;;13.00;5.43;;;5.20;99.90;;;;;;5093700;28;20234;-71
2021/03/05 08:03:06;;;;;;;14.77;4.90;;;5.20;99.90;;;;;;5094024;28;20664;-71
2021/03/05 08:05:41;;;;;;;16.60;7.03;;;5.30;99.90;;;;;;5093976;28;20289;-71
2021/03/05 08:08:22;;;;;;;12.55;5.43;;;5.20;99.90;;;;;;5094265;28;20652;-71
2021/03/05 08:10:51;;;;;;;11.27;5.60;;;5.20;99.90;;;;;;5093810;28;20222;-71
2021/03/05 08:13:47;;;;;;;14.60;6.90;;;5.30;99.90;;;;;;5093852;28;20202;-71
2021/03/05 08:16:47;;;;;;;16.00;6.90;;;5.30;99.90;;;;;;5094072;28;20193;-71
2021/03/05 08:19:51;;;;;;;17.27;6.53;;;5.30;99.90;;;;;;5096998;28;20293;-71
2021/03/05 08:22:19;;;;;;;11.23;6.28;;;5.20;99.90;;;;;;5098281;28;20190;-71
2021/03/05 08:24:45;;;;;;;10.52;6.03;;;5.10;99.90;;;;;;5099187;28;20284;-71
2021/03/05 08:27:20;;;;;;;9.80;6.35;;;5.00;99.90;;;;;;5097749;28;20285;-70
2021/03/05 08:30:00;;;;;;;11.38;5.38;;;5.10;99.90;;;;;;5098219;28;20179;-71
2021/03/05 08:32:46;;;;;;;11.85;6.30;;;5.30;99.90;;;;;;5098445;28;20279;-71
2021/03/05 08:35:15;;;;;;;11.30;5.50;;;5.50;99.90;;;;;;5098275;28;20254;-70
2021/03/05 08:37:43;;;;;;;15.00;6.97;;;5.60;99.90;;;;;;5097770;28;20307;-72
2021/03/05 08:40:30;;;;;;;12.30;6.05;;;5.60;99.90;;;;;;5088338;28;20230;-71
2021/03/05 08:42:57;;;;;;;13.07;5.82;;;5.80;99.90;;;;;;5096564;28;20278;-76
2021/03/05 08:45:27;;;;;;;12.57;6.45;;;5.70;99.90;;;;;;5095719;28;20304;-76
2021/03/05 08:47:55;;;;;;;14.30;6.78;;;5.70;99.90;;;;;;5095531;28;20205;-75
2021/03/05 08:50:27;;;;;;;11.80;6.63;;;5.30;99.90;;;;;;5095471;28;20301;-75
2021/03/05 08:52:54;;;;;;;11.73;5.85;;;5.10;99.90;;;;;;5095259;28;20198;-75
2021/03/05 08:55:21;;;;;;;11.35;6.35;;;5.20;99.90;;;;;;5095121;28;20206;-76
2021/03/05 08:57:49;;;;;;;12.18;5.38;;;5.40;99.90;;;;;;5096599;28;20274;-74
2021/03/05 09:00:17;;;;;;;11.75;5.45;;;5.20;99.90;;;;;;5098129;28;20791;-73
2021/03/05 09:02:45;;;;;;;9.52;4.80;;;5.30;99.90;;;;;;5097910;28;20704;-74
2021/03/05 09:05:13;;;;;;;9.18;5.28;;;5.50;99.90;;;;;;5097798;28;20226;-74
2021/03/05 09:07:51;;;;;;;10.90;5.63;;;5.70;99.90;;;;;;5098130;28;20202;-74
2021/03/05 09:10:19;;;;;;;9.35;5.45;;;5.80;99.90;;;;;;5098308;28;20622;-72
2021/03/05 09:12:56;;;;;;;11.43;5.57;;;5.80;99.90;;;;;;5099053;28;20202;-73
2021/03/05 09:15:27;;;;;;;10.65;6.43;;;5.90;99.90;;;;;;5098904;28;20201;-73
2021/03/05 09:17:54;;;;;;;8.80;5.57;;;5.70;99.90;;;;;;5098753;28;20616;-73
2021/03/05 09:20:21;;;;;;;11.75;5.47;;;5.70;99.90;;;;;;5098143;28;20226;-72
2021/03/05 09:22:47;;;;;;;11.50;6.03;;;5.90;99.90;;;;;;5098258;28;20205;-74
2021/03/05 09:25:15;;;;;;;9.18;4.40;;;6.00;99.90;;;;;;5097990;28;20300;-73
2021/03/05 09:27:43;;;;;;;14.80;5.93;;;6.10;99.90;;;;;;5097342;28;20212;-73
2021/03/05 09:30:19;;;;;;;10.07;5.65;;;6.20;99.90;;;;;;5096517;28;20632;-73
2021/03/05 09:32:50;;;;;;;9.60;5.50;;;6.40;99.90;;;;;;5097144;28;20223;-73
2021/03/05 09:35:24;;;;;;;10.05;5.15;;;6.30;99.90;;;;;;5097226;28;20300;-73
2021/03/05 09:37:50;;;;;;;9.88;5.05;;;6.20;99.90;;;;;;5096532;28;20205;-73
2021/03/05 09:40:18;;;;;;;13.40;5.90;;;6.30;99.90;;;;;;5097223;28;20222;-73
2021/03/05 09:42:50;;;;;;;9.18;5.30;;;6.20;99.90;;;;;;5097312;28;20293;-73
2021/03/05 09:45:40;;;;;;;9.95;5.20;;;6.20;99.90;;;;;;5097184;28;20223;-73
2021/03/05 09:48:08;;;;;;;9.32;4.82;;;5.90;99.90;;;;;;5098813;28;20293;-73
2021/03/05 09:50:36;;;;;;;12.90;5.30;;;5.70;99.90;;;;;;5098005;28;20359;-73
2021/03/05 09:53:29;;;;;;;11.23;5.90;;;5.80;99.90;;;;;;5098117;28;20308;-73
2021/03/05 09:55:58;;;;;;;11.40;5.25;;;5.90;99.90;;;;;;5098107;28;20216;-73
2021/03/05 09:58:25;;;;;;;11.45;5.10;;;5.90;99.90;;;;;;5098363;28;20227;-73
2021/03/05 10:00:52;;;;;;;10.15;5.70;;;5.70;99.90;;;;;;5097771;28;20226;-73
2021/03/05 10:03:19;;;;;;;11.60;5.63;;;5.60;99.90;;;;;;5098283;28;20636;-73
2021/03/05 10:05:46;;;;;;;11.73;5.80;;;5.60;99.90;;;;;;5098120;28;20297;-73
2021/03/05 10:08:15;;;;;;;10.18;5.80;;;5.50;99.90;;;;;;5097366;28;20209;-73
2021/03/05 10:11:02;;;;;;;10.57;5.55;;;5.50;99.90;;;;;;5096895;28;20220;-73
2021/03/05 10:13:52;;;;;;;10.65;6.40;;;5.50;99.90;;;;;;5097376;28;20202;-73
2021/03/05 10:16:24;;;;;;;10.60;5.45;;;5.50;99.90;;;;;;5096641;28;20667;-73
2021/03/05 10:18:51;;;;;;;10.77;5.18;;;5.60;99.90;;;;;;5096775;28;20226;-73
2021/03/05 10:21:19;;;;;;;10.95;4.57;;;5.80;99.90;;;;;;5097106;28;20309;-73
2021/03/05 10:23:46;;;;;;;10.50;5.60;;;5.70;99.90;;;;;;5097095;28;20622;-73
2021/03/05 10:26:17;;;;;;;10.55;5.28;;;6.00;99.90;;;;;;5095906;28;20691;-73
2021/03/05 10:28:45;;;;;;;12.48;6.03;;;6.30;99.90;;;;;;5095405;28;20292;-74
2021/03/05 10:31:12;;;;;;;9.98;5.97;;;6.50;99.90;;;;;;5096795;28;20222;-73
2021/03/05 10:33:40;;;;;;;10.13;4.75;;;6.20;99.90;;;;;;5097208;28;20209;-73
2021/03/05 10:36:08;;;;;;;10.93;5.30;;;6.20;99.90;;;;;;5096429;28;20202;-73
2021/03/05 10:38:37;;;;;;;11.45;5.03;;;6.20;99.90;;;;;;5096091;28;20649;-73
2021/03/05 10:41:05;;;;;;;11.48;6.10;;;6.10;99.90;;;;;;5095571;28;20245;-73
2021/03/05 10:43:34;;;;;;;11.80;5.60;;;5.90;99.90;;;;;;5096029;28;20291;-73
2021/03/05 10:46:01;;;;;;;8.98;4.90;;;5.90;99.90;;;;;;5096207;28;20201;-74
2021/03/05 10:48:27;;;;;;;11.32;5.00;;;5.90;99.90;;;;;;5095508;28;20709;-73
2021/03/05 10:50:53;;;;;;;11.85;5.13;;;6.20;99.90;;;;;;5095170;28;20226;-73
2021/03/05 10:53:19;;;;;;;10.05;4.88;;;6.30;99.90;;;;;;5094875;28;20202;-73
2021/03/05 10:55:47;;;;;;;12.77;5.47;;;6.40;99.90;;;;;;5094850;28;20277;-73
2021/03/05 10:58:13;;;;;;;11.40;6.13;;;6.50;99.90;;;;;;5094636;28;20267;-73
2021/03/05 11:00:41;;;;;;;16.95;6.22;;;6.50;99.90;;;;;;5095276;28;20313;-73
2021/03/05 11:03:07;;;;;;;9.15;5.20;;;6.30;99.90;;;;;;5095868;28;20597;-73
2021/03/05 11:05:33;;;;;;;8.30;4.57;;;6.10;99.90;;;;;;5095209;28;20233;-73
2021/03/05 11:08:00;;;;;;;11.65;5.90;;;6.30;99.90;;;;;;5095351;28;20644;-73
2021/03/05 11:10:26;;;;;;;11.20;5.25;;;6.20;99.90;;;;;;5095162;28;20222;-73
2021/03/05 11:12:52;;;;;;;13.05;5.60;;;6.40;99.90;;;;;;5095322;28;20308;-73
2021/03/05 11:15:19;;;;;;;11.35;5.47;;;6.60;99.90;;;;;;5095139;28;20202;-73
2021/03/05 11:17:46;;;;;;;11.88;4.68;;;6.80;99.90;;;;;;5094424;28;20232;-73
2021/03/05 11:20:14;;;;;;;9.98;5.07;;;6.80;99.90;;;;;;5094116;28;20686;-73
2021/03/05 11:22:40;;;;;;;10.98;5.45;;;6.80;99.90;;;;;;5094369;28;20288;-73
2021/03/05 11:25:08;;;;;;;11.90;5.70;;;6.80;99.90;;;;;;5094799;28;20305;-73
2021/03/05 11:27:35;;;;;;;11.25;5.65;;;6.60;99.90;;;;;;5094545;28;20228;-73
2021/03/05 11:30:03;;;;;;;10.90;5.80;;;6.60;99.90;;;;;;5094468;28;20233;-73
2021/03/05 11:32:32;;;;;;;8.80;5.05;;;6.50;99.90;;;;;;5095428;28;20234;-73
2021/03/05 11:34:59;;;;;;;12.80;5.63;;;6.40;99.90;;;;;;5094507;28;20202;-73
2021/03/05 11:37:27;;;;;;;13.13;6.35;;;6.50;99.90;;;;;;5093594;28;20228;-73
2021/03/05 11:39:53;;;;;;;10.25;4.55;;;6.60;99.90;;;;;;5095033;28;20218;-73
2021/03/05 11:42:19;;;;;;;12.77;5.60;;;6.50;99.90;;;;;;5095591;28;20305;-73
2021/03/05 11:44:46;;;;;;;15.68;5.60;;;6.30;99.90;;;;;;5094227;28;20213;-73
2021/03/05 11:47:12;;;;;;;13.32;6.38;;;6.30;99.90;;;;;;5094374;28;20210;-73
2021/03/05 11:49:38;;;;;;;11.52;6.43;;;6.30;99.90;;;;;;5095344;28;20284;-73
2021/03/05 11:52:06;;;;;;;9.25;4.65;;;6.30;99.90;;;;;;5096858;28;20331;-73
2021/03/05 11:54:33;;;;;;;9.65;4.80;;;6.40;99.90;;;;;;5100896;28;20719;-73
2021/03/05 11:56:59;;;;;;;11.45;5.53;;;6.60;99.90;;;;;;5100456;28;20209;-73
2021/03/05 11:59:25;;;;;;;12.98;5.85;;;6.60;99.90;;;;;;5101113;28;20743;-73
2021/03/05 12:01:51;;;;;;;10.35;5.78;;;6.60;99.90;;;;;;5100697;28;20312;-73
2021/03/05 12:04:18;;;;;;;7.75;4.78;;;6.60;99.90;;;;;;5101013;28;20292;-73
2021/03/05 12:06:44;;;;;;;12.00;5.78;;;6.60;99.90;;;;;;5100139;28;20208;-73
2021/03/05 12:09:11;;;;;;;10.18;5.63;;;6.80;99.90;;;;;;5101088;28;20610;-73
2021/03/05 12:11:38;;;;;;;14.75;6.50;;;6.90;99.90;;;;;;5100157;28;20232;-73
2021/03/05 12:14:06;;;;;;;12.93;6.30;;;6.90;99.90;;;;;;5101448;28;20606;-73
2021/03/05 12:16:33;;;;;;;14.85;6.55;;;6.70;99.90;;;;;;5100790;28;20213;-73
2021/03/05 12:18:59;;;;;;;10.77;6.15;;;6.60;99.90;;;;;;5100684;28;20197;-73
2021/03/05 12:21:26;;;;;;;11.35;5.63;;;6.80;99.90;;;;;;5100903;28;20746;-73
2021/03/05 12:23:54;;;;;;;8.85;5.75;;;7.00;99.90;;;;;;5100333;28;20208;-73
2021/03/05 12:26:21;;;;;;;12.23;6.18;;;7.20;99.90;;;;;;5100496;28;20206;-73
2021/03/05 12:28:48;;;;;;;13.85;5.75;;;7.20;99.90;;;;;;5100201;28;20240;-73
2021/03/05 12:31:14;;;;;;;9.45;5.53;;;7.30;99.90;;;;;;5100426;28;20268;-73
2021/03/05 12:33:43;;;;;;;11.90;5.60;;;7.40;99.90;;;;;;5100381;28;20198;-73
2021/03/05 12:36:09;;;;;;;10.98;5.57;;;7.40;99.90;;;;;;5100294;28;20552;-73
2021/03/05 12:38:36;;;;;;;13.90;7.38;;;7.30;99.90;;;;;;5100879;28;20311;-73
2021/03/05 12:41:05;;;;;;;13.13;6.05;;;7.40;99.90;;;;;;5100216;28;20226;-73
2021/03/05 12:43:32;;;;;;;9.07;5.30;;;7.50;99.90;;;;;;5100110;28;20198;-74
2021/03/05 12:45:58;;;;;;;11.35;5.75;;;7.50;99.90;;;;;;5100168;28;20205;-74
2021/03/05 12:48:25;;;;;;;13.68;7.10;;;7.60;99.90;;;;;;5100364;28;20231;-73
2021/03/05 12:50:51;;;;;;;10.95;5.63;;;7.80;99.90;;;;;;5100069;28;20691;-73
2021/03/05 12:53:18;;;;;;;10.25;5.50;;;7.90;99.90;;;;;;5100353;28;20201;-73
2021/03/05 12:55:44;;;;;;;10.48;5.55;;;7.80;99.90;;;;;;5100472;28;20606;-73